createdAt,value
2023-01-25T00:01:06.961Z,41.85
2023-01-25T00:06:09.558Z,39.40
2023-01-25T00:11:11.960Z,41.25
2023-01-25T00:16:14.429Z,37.90
2023-01-25T00:21:22.709Z,40.20
2023-01-25T00:26:25.161Z,53.88
2023-01-25T00:31:33.891Z,47.40
2023-01-25T00:36:39.745Z,61.97
2023-01-25T00:41:43.332Z,56.45
2023-01-25T00:46:45.731Z,51.05
2023-01-25T00:51:48.838Z,49.33
2023-01-25T00:56:56.623Z,50.45
2023-01-25T01:02:03.117Z,50.00
2023-01-25T01:07:06.769Z,52.80
2023-01-25T01:12:09.406Z,49.95
2023-01-25T01:17:13.867Z,47.03
2023-01-25T01:22:16.690Z,50.13
2023-01-25T01:27:19.125Z,91.75
2023-01-25T01:32:21.546Z,74.72
2023-01-25T01:37:43.656Z,75.75
2023-01-25T01:43:01.178Z,56.85
2023-01-25T01:48:05.389Z,54.80
2023-01-25T01:53:08.081Z,51.70
2023-01-25T01:58:11.435Z,54.33
2023-01-25T02:03:14.982Z,51.33
2023-01-25T02:08:18.864Z,49.97
2023-01-25T02:13:21.715Z,48.40
2023-01-25T02:18:24.883Z,48.03
2023-01-25T02:23:48.746Z,47.38
2023-01-25T02:28:55.564Z,47.80
2023-01-25T02:34:00.870Z,50.42
2023-01-25T02:44:18.369Z,41.53
2023-01-25T02:49:21.358Z,48.10
2023-01-25T02:59:28.713Z,40.40
2023-01-25T03:04:34.399Z,45.97
2023-01-25T03:09:36.902Z,49.22
2023-01-25T03:14:39.451Z,42.80
2023-01-25T03:19:42.026Z,49.80
2023-01-25T03:24:45.449Z,44.92
2023-01-25T03:29:49.015Z,45.75
2023-01-25T03:34:59.842Z,51.10
2023-01-25T03:40:05.831Z,49.70
2023-01-25T03:45:10.627Z,50.45
2023-01-25T03:50:13.530Z,51.33
2023-01-25T03:55:17.173Z,47.10
2023-01-25T04:00:22.056Z,45.53
2023-01-25T04:05:42.864Z,41.30
2023-01-25T04:11:03.814Z,46.25
2023-01-25T04:16:08.289Z,57.90
2023-01-25T04:21:29.135Z,47.17
2023-01-25T04:26:32.437Z,48.70
2023-01-25T04:31:37.758Z,54.28
2023-01-25T04:36:41.603Z,52.95
2023-01-25T04:41:44.854Z,51.80
2023-01-25T04:46:48.954Z,45.55
2023-01-25T04:51:51.417Z,40.10
2023-01-25T04:56:57.794Z,47.10
2023-01-25T05:02:01.268Z,43.63
2023-01-25T05:07:04.575Z,42.97
2023-01-25T05:12:13.773Z,48.25
2023-01-25T05:17:45.426Z,46.38
2023-01-25T05:22:49.364Z,48.50
2023-01-25T05:27:52.100Z,40.25
2023-01-25T05:33:14.494Z,48.08
2023-01-25T05:38:19.380Z,41.80
2023-01-25T05:43:23.772Z,50.38
2023-01-25T05:48:26.270Z,52.20
2023-01-25T05:53:29.306Z,37.60
2023-01-25T05:58:32.437Z,46.17
2023-01-25T06:03:42.848Z,34.80
2023-01-25T06:08:45.800Z,48.45
2023-01-25T06:13:50.571Z,49.03
2023-01-25T06:18:53.263Z,49.90
2023-01-25T06:24:20.486Z,44.40
2023-01-25T06:29:33.869Z,59.95
2023-01-25T06:39:46.265Z,45.78
2023-01-25T06:44:48.698Z,43.38
2023-01-25T06:49:51.055Z,49.28
2023-01-25T06:54:54.899Z,51.67
2023-01-25T06:59:58.354Z,50.40
2023-01-25T07:05:00.670Z,67.25
2023-01-25T07:10:04.201Z,48.90
2023-01-25T07:15:10.559Z,50.33
2023-01-25T07:20:13.277Z,45.05
2023-01-25T07:25:15.966Z,54.30
2023-01-25T07:30:21.749Z,48.58
2023-01-25T07:35:25.079Z,54.47
2023-01-25T07:40:28.652Z,55.03
2023-01-25T07:45:31.188Z,51.88
2023-01-25T07:50:33.557Z,43.05
2023-01-25T07:55:36.940Z,51.80
2023-01-25T08:00:40.502Z,51.25
2023-01-25T08:05:46.320Z,53.05
2023-01-25T08:10:48.739Z,51.00
2023-01-25T08:15:56.435Z,137.18
2023-01-25T08:20:59.687Z,97.07
2023-01-25T08:26:05.807Z,62.05
2023-01-25T08:31:10.398Z,53.05
2023-01-25T08:36:14.403Z,45.35
2023-01-25T08:46:24.026Z,48.22
2023-01-25T08:51:29.132Z,53.35
2023-01-25T08:56:31.993Z,47.72
2023-01-25T09:01:34.527Z,51.55
2023-01-25T09:06:37.089Z,54.05
2023-01-25T09:11:40.814Z,54.97
2023-01-25T09:16:43.385Z,62.63
2023-01-25T09:21:46.114Z,65.57
2023-01-25T09:26:59.445Z,59.58
2023-01-25T09:32:02.667Z,47.05
2023-01-25T09:37:08.174Z,69.57
2023-01-25T09:42:21.499Z,86.72
2023-01-25T09:47:31.330Z,76.43
2023-01-25T09:53:06.084Z,61.63
2023-01-25T09:58:18.429Z,53.90
2023-01-25T10:03:24.128Z,48.70
2023-01-25T10:08:33.515Z,48.05
2023-01-25T10:13:35.909Z,42.10
2023-01-25T10:18:47.259Z,44.95
2023-01-25T10:24:11.738Z,53.58
2023-01-25T10:29:23.756Z,48.70
2023-01-25T10:34:56.368Z,30.73
2023-01-25T10:40:04.533Z,28.13
2023-01-25T10:45:14.652Z,28.58
2023-01-25T10:50:39.087Z,33.20
2023-01-25T10:56:33.829Z,39.15
2023-01-25T11:08:45.846Z,37.47
2023-01-25T11:13:57.309Z,36.33
2023-01-25T11:24:58.648Z,47.22
2023-01-25T11:30:19.390Z,46.78
2023-01-25T11:35:29.180Z,52.85
2023-01-25T11:40:47.543Z,44.22
2023-01-25T11:46:06.053Z,35.38
2023-01-25T11:51:29.846Z,32.15
2023-01-25T11:56:54.529Z,25.05
2023-01-25T12:02:04.954Z,26.20
2023-01-25T12:07:17.817Z,34.53
2023-01-25T12:12:37.952Z,39.20
2023-01-25T12:18:10.416Z,44.42
2023-01-25T12:23:32.861Z,31.08
2023-01-25T12:28:41.118Z,36.72
2023-01-25T12:33:49.465Z,35.60
2023-01-25T12:39:24.695Z,26.88
2023-01-25T12:44:45.979Z,34.00
2023-01-25T12:49:52.970Z,44.75
2023-01-25T12:54:59.907Z,43.80
2023-01-25T13:00:19.015Z,42.17
2023-01-25T13:05:30.711Z,40.65
2023-01-25T13:10:40.666Z,51.10
2023-01-25T13:15:45.212Z,62.60
2023-01-25T13:20:49.711Z,60.50
2023-01-25T13:25:52.146Z,47.75
2023-01-25T13:30:55.966Z,37.03
2023-01-25T13:35:58.695Z,37.35
2023-01-25T13:41:04.471Z,46.85
2023-01-25T13:46:09.208Z,41.75
2023-01-25T13:51:14.967Z,29.17
2023-01-25T13:56:30.093Z,32.97
2023-01-25T14:01:34.679Z,23.88
2023-01-25T14:06:41.585Z,39.47
2023-01-25T14:11:46.950Z,60.38
2023-01-25T14:17:02.166Z,54.95
2023-01-25T14:22:33.754Z,95.07
2023-01-25T14:27:41.512Z,43.83
2023-01-25T14:32:43.909Z,76.30
2023-01-25T14:37:46.470Z,75.72
2023-01-25T14:42:53.359Z,103.50
2023-01-25T14:47:59.392Z,85.20
2023-01-25T14:53:21.498Z,65.03
2023-01-25T14:58:24.693Z,45.58
2023-01-25T15:03:27.865Z,38.40
2023-01-25T15:08:36.558Z,51.60
2023-01-25T15:13:42.495Z,48.53
2023-01-25T15:18:52.501Z,56.22
2023-01-25T15:24:07.048Z,81.70
2023-01-25T15:29:16.322Z,86.70
2023-01-25T15:34:29.351Z,76.85
2023-01-25T15:39:32.935Z,43.87
2023-01-25T15:49:39.761Z,105.28
2023-01-25T15:54:51.731Z,89.68
2023-01-25T15:59:57.524Z,86.40
2023-01-25T16:05:00.327Z,113.10
2023-01-25T16:10:02.969Z,45.87
2023-01-25T16:15:07.002Z,78.50
2023-01-25T16:20:18.194Z,60.03
2023-01-25T16:25:21.491Z,55.08
2023-01-25T16:30:31.250Z,61.33
2023-01-25T16:35:33.852Z,38.17
2023-01-25T16:40:39.322Z,58.17
2023-01-25T16:45:43.503Z,67.20
2023-01-25T16:50:50.037Z,51.60
2023-01-25T16:55:53.130Z,49.20
2023-01-25T17:00:55.896Z,64.82
2023-01-25T17:05:58.437Z,55.45
2023-01-25T17:11:05.389Z,67.30
2023-01-25T17:16:09.363Z,74.15
2023-01-25T17:21:14.650Z,59.22
2023-01-25T17:26:18.491Z,59.25
2023-01-25T17:31:27.202Z,83.72
2023-01-25T17:36:29.792Z,67.30
2023-01-25T17:41:32.494Z,71.13
2023-01-25T17:46:37.487Z,94.95
2023-01-25T17:51:39.957Z,54.85
2023-01-25T17:56:42.556Z,59.13
2023-01-25T18:01:48.400Z,54.65
2023-01-25T18:06:50.787Z,49.17
2023-01-25T18:11:53.302Z,45.67
2023-01-25T18:16:55.728Z,56.25
2023-01-25T18:21:58.089Z,53.30
2023-01-25T18:27:05.269Z,39.42
2023-01-25T18:32:08.151Z,67.28
2023-01-25T18:37:21.126Z,68.57
2023-01-25T18:42:25.104Z,99.40
2023-01-25T18:47:27.922Z,91.13
2023-01-25T18:52:30.349Z,62.63
2023-01-25T18:57:32.797Z,64.30
2023-01-25T19:02:35.463Z,85.07
2023-01-25T19:07:37.934Z,47.53
2023-01-25T19:12:40.293Z,64.20
2023-01-25T19:17:42.940Z,56.80
2023-01-25T19:22:45.673Z,48.38
2023-01-25T19:27:48.088Z,39.45
2023-01-25T19:32:50.761Z,102.43
2023-01-25T19:37:53.088Z,48.55
2023-01-25T19:42:55.702Z,36.88
2023-01-25T19:47:58.199Z,38.23
2023-01-25T19:53:03.411Z,102.22
2023-01-25T19:58:08.964Z,114.75
2023-01-25T20:03:16.547Z,98.22
2023-01-25T20:08:19.213Z,107.40
2023-01-25T20:13:47.808Z,73.80
2023-01-25T20:18:55.569Z,53.10
2023-01-25T20:24:04.866Z,46.60
2023-01-25T20:29:42.967Z,56.85
2023-01-25T20:34:45.280Z,54.85
2023-01-25T20:39:47.769Z,63.85
2023-01-25T20:44:50.282Z,67.07
2023-01-25T20:49:52.815Z,68.13
2023-01-25T20:55:01.007Z,53.38
2023-01-25T21:00:33.419Z,57.95
2023-01-25T21:05:37.815Z,53.88
2023-01-25T21:16:37.150Z,77.65
2023-01-25T21:21:59.177Z,53.90
2023-01-25T21:27:01.630Z,80.15
2023-01-25T21:32:04.611Z,62.08
2023-01-25T21:37:06.986Z,37.03
2023-01-25T21:42:12.767Z,33.13
2023-01-25T21:52:36.753Z,49.93
2023-01-25T21:57:47.225Z,40.95
2023-01-25T22:02:51.879Z,31.77
2023-01-25T22:07:54.381Z,29.02
2023-01-25T22:12:58.867Z,33.27
2023-01-25T22:18:01.312Z,47.47
2023-01-25T22:23:03.720Z,38.65
2023-01-25T22:28:13.562Z,36.08
2023-01-25T22:33:18.681Z,43.42
2023-01-25T22:38:22.275Z,40.42
2023-01-25T22:48:33.767Z,29.60
2023-01-25T22:53:36.307Z,26.40
2023-01-25T22:58:40.294Z,31.55
2023-01-25T23:03:45.566Z,29.67
2023-01-25T23:08:48.829Z,25.30
2023-01-25T23:14:12.465Z,37.13
2023-01-25T23:19:15.456Z,27.60
2023-01-25T23:24:17.878Z,31.40
2023-01-25T23:29:26.862Z,22.15
2023-01-25T23:34:34.783Z,22.60
2023-01-25T23:39:37.891Z,22.67
2023-01-25T23:49:43.663Z,15.57
2023-01-25T23:54:47.109Z,14.82
2023-01-25T23:59:49.600Z,19.58
